Time;durP1;ratioP1;P1;durP2;ratioP2;P2;SDS_P1;SDS_P2;PMS_P1;PMS_P2;Temp;Humidity;BMP_temperature;BMP_pressure;BME280_temperature;BME280_humidity;BME280_pressure;Samples;Min_cycle;Max_cycle;Signal;HPM_P1;HPM_P2
2021/05/22 00:00:30;;;;;;;6.07;2.87;;;;;;;13.80;47.19;98387.83;125360;1107;103035;-79
2021/05/22 00:03:17;;;;;;;6.83;2.30;;;;;;;13.78;47.33;98387.13;125366;1107;103078;-77
2021/05/22 00:05:45;;;;;;;6.70;2.10;;;;;;;13.77;47.35;98388.98;125360;1100;103454;-77
2021/05/22 00:08:13;;;;;;;6.73;2.43;;;;;;;13.78;47.55;98387.13;125377;1107;103000;-77
2021/05/22 00:10:42;;;;;;;3.77;2.00;;;;;;;13.78;47.49;98385.32;125379;1107;103093;-77
2021/05/22 00:13:10;;;;;;;4.63;2.60;;;;;;;13.78;47.80;98382.65;125415;1107;103001;-79
2021/05/22 00:15:39;;;;;;;7.27;2.67;;;;;;;13.76;47.64;98379.28;125385;1107;103118;-80
2021/05/22 00:18:07;;;;;;;4.95;2.30;;;;;;;13.75;47.88;98379.41;125357;1107;103152;-78
2021/05/22 00:20:36;;;;;;;5.77;2.00;;;;;;;13.74;47.80;98372.38;125392;1099;103071;-78
2021/05/22 00:23:05;;;;;;;4.15;2.00;;;;;;;13.70;47.69;98372.67;125387;1107;103035;-77
2021/05/22 00:25:33;;;;;;;5.73;2.43;;;;;;;13.68;47.88;98366.64;125352;1100;103053;-76
2021/05/22 00:28:02;;;;;;;4.27;2.07;;;;;;;13.66;47.86;98370.47;125448;1104;103018;-77
2021/05/22 00:30:30;;;;;;;5.40;2.47;;;;;;;13.64;48.17;98369.77;125491;1100;103058;-80
2021/05/22 00:32:58;;;;;;;4.00;2.70;;;;;;;13.66;48.03;98357.10;125509;1104;103467;-74
2021/05/22 00:35:27;;;;;;;6.90;2.63;;;;;;;13.66;48.07;98357.93;125325;1100;103632;-75
2021/05/22 00:37:55;;;;;;;6.07;2.40;;;;;;;13.68;48.07;98352.45;125514;1104;103075;-75
2021/05/22 00:40:24;;;;;;;7.17;2.47;;;;;;;13.68;48.35;98358.63;125546;1100;103286;-76
2021/05/22 00:42:52;;;;;;;5.95;2.00;;;;;;;13.70;48.38;98351.30;125511;1104;103002;-76
2021/05/22 00:45:22;;;;;;;5.40;2.30;;;;;;;13.71;48.38;98346.81;125574;1100;103530;-76
2021/05/22 00:47:56;;;;;;;3.03;2.10;;;;;;;13.72;48.40;98348.50;125573;1104;103093;-76
2021/05/22 00:50:37;;;;;;;2.83;1.90;;;;;;;13.70;48.31;98340.61;125589;1099;103089;-78
2021/05/22 00:53:07;;;;;;;5.20;1.90;;;;;;;13.70;48.54;98340.61;125517;1104;103076;-76
2021/05/22 00:55:36;;;;;;;2.97;2.03;;;;;;;13.70;48.60;98340.61;125540;1104;103064;-77
2021/05/22 00:58:05;;;;;;;3.73;1.93;;;;;;;13.69;48.56;98335.43;125593;1100;103000;-77
2021/05/22 01:00:42;;;;;;;7.95;2.15;;;;;;;13.67;48.82;98342.75;125527;1104;103068;-75
2021/05/22 01:03:19;;;;;;;8.27;2.23;;;;;;;13.64;49.10;98351.06;125454;1105;103071;-76
2021/05/22 01:05:48;;;;;;;8.47;2.60;;;;;;;13.60;48.86;98339.84;125619;1104;102997;-75
2021/05/22 01:08:20;;;;;;;5.27;2.60;;;;;;;13.55;49.10;98332.25;125418;1107;103067;-75
2021/05/22 01:11:00;;;;;;;4.30;2.13;;;;;;;13.50;49.13;98334.53;125584;1104;103089;-76
2021/05/22 01:13:36;;;;;;;4.90;2.15;;;;;;;13.47;49.32;98332.16;125542;1104;103037;-74
2021/05/22 01:16:06;;;;;;;4.30;2.03;;;;;;;13.42;49.50;98321.10;125515;1104;103092;-75
2021/05/22 01:18:35;;;;;;;6.50;2.47;;;;;;;13.37;50.05;98316.15;125393;1100;103102;-75
2021/05/22 01:21:05;;;;;;;9.10;2.43;;;;;;;13.32;50.12;98301.57;125277;1105;103080;-75
2021/05/22 01:23:41;;;;;;;3.07;2.13;;;;;;;13.27;50.52;98309.18;125510;1099;103066;-74
2021/05/22 01:26:12;;;;;;;3.17;1.80;;;;;;;13.22;50.95;98307.79;125373;1104;103069;-74
2021/05/22 01:28:44;;;;;;;3.67;2.10;;;;;;;13.20;50.45;98314.28;125549;1100;103007;-74
2021/05/22 01:31:13;;;;;;;5.37;2.43;;;;;;;13.21;50.18;98326.64;125532;1100;103140;-75
2021/05/22 01:33:41;;;;;;;4.90;2.23;;;;;;;13.22;50.49;98314.98;125582;1100;103088;-75
2021/05/22 01:36:10;;;;;;;5.10;2.20;;;;;;;13.24;50.49;98308.48;125550;1105;103045;-75
2021/05/22 01:38:38;;;;;;;5.83;2.57;;;;;;;13.29;50.63;98307.20;126131;1104;103581;-74
2021/05/22 01:41:07;;;;;;;6.80;2.17;;;;;;;13.31;50.73;98289.20;126420;1104;101909;-75
2021/05/22 01:43:39;;;;;;;3.43;2.10;;;;;;;13.32;50.75;98280.20;126278;1106;103330;-76
2021/05/22 01:46:09;;;;;;;6.90;2.20;;;;;;;13.32;50.61;98289.04;126268;1105;103590;-75
2021/05/22 01:48:38;;;;;;;7.25;2.20;;;;;;;13.32;50.79;98291.71;126098;1100;103202;-75
2021/05/22 01:51:17;;;;;;;4.30;2.20;;;;;;;13.36;51.08;98285.09;126279;1104;103092;-75
2021/05/22 01:53:47;;;;;;;3.80;2.17;;;;;;;13.36;50.98;98294.95;126217;1104;102997;-75
2021/05/22 01:56:18;;;;;;;6.50;2.57;;;;;;;13.37;50.77;98289.44;125826;1104;103118;-76
2021/05/22 01:58:47;;;;;;;4.27;2.27;;;;;;;13.36;50.90;98293.10;125886;1104;103024;-75
2021/05/22 02:01:16;;;;;;;4.00;2.07;;;;;;;13.35;50.81;98298.61;126550;1104;103096;-75
2021/05/22 02:03:50;;;;;;;4.23;2.23;;;;;;;13.32;51.04;98297.05;126363;1104;103142;-74
2021/05/22 02:06:24;;;;;;;;;;;;;;;13.27;51.36;98287.81;126398;1104;103054;-75
2021/05/22 02:08:56;;;;;;;3.30;2.03;;;;;;;13.19;51.18;98285.89;126177;1099;103087;-75
2021/05/22 02:11:29;;;;;;;8.00;2.90;;;;;;;13.12;51.08;98279.45;126112;1099;103052;-75
2021/05/22 02:14:00;;;;;;;6.13;2.88;;;;;;;13.07;51.15;98283.41;126163;1104;103030;-74
2021/05/22 02:16:32;;;;;;;5.10;2.33;;;;;;;13.05;51.17;98279.19;126074;1104;103122;-75
2021/05/22 02:19:02;;;;;;;6.97;2.70;;;;;;;13.00;51.29;98286.82;126342;1099;103651;-74
2021/05/22 02:21:32;;;;;;;4.10;2.50;;;;;;;12.97;51.22;98277.26;126244;1099;103241;-76
2021/05/22 02:24:00;;;;;;;4.40;2.40;;;;;;;12.93;51.49;98279.39;126330;1107;103135;-77
2021/05/22 02:26:29;;;;;;;7.23;2.70;;;;;;;12.90;51.49;98282.34;126369;1104;103044;-75
2021/05/22 02:29:00;;;;;;;6.00;2.20;;;;;;;12.88;51.62;98283.47;126277;1104;103075;-76
2021/05/22 02:31:31;;;;;;;6.27;2.43;;;;;;;12.87;51.39;98284.45;126121;1104;103577;-74
2021/05/22 02:34:04;;;;;;;3.73;2.50;;;;;;;12.88;51.51;98295.00;126008;1104;103097;-75
2021/05/22 02:36:34;;;;;;;5.27;2.63;;;;;;;12.85;51.56;98295.28;126047;1099;103000;-71
2021/05/22 02:39:04;;;;;;;7.27;2.70;;;;;;;12.83;51.86;98299.92;125514;1105;103244;-74
2021/05/22 02:41:35;;;;;;;6.53;2.90;;;;;;;12.84;51.98;98296.27;125688;1104;103099;-74
2021/05/22 02:44:05;;;;;;;5.73;2.70;;;;;;;12.85;51.94;98294.42;125677;1104;103447;-74
2021/05/22 02:46:42;;;;;;;5.87;3.07;;;;;;;12.85;52.01;98289.95;125695;1104;103230;-77
2021/05/22 02:49:15;;;;;;;4.53;2.57;;;;;;;12.86;51.81;98288.11;126229;1104;103007;-76
2021/05/22 02:51:47;;;;;;;5.03;2.93;;;;;;;12.83;52.03;98278.58;126413;1104;102921;-75
2021/05/22 02:54:20;;;;;;;4.40;3.00;;;;;;;12.80;51.93;98279.72;126492;1104;103136;-75
2021/05/22 02:56:50;;;;;;;6.03;2.63;;;;;;;12.79;51.94;98285.19;126241;1105;102995;-76
2021/05/22 02:59:19;;;;;;;6.83;2.50;;;;;;;12.79;52.04;98274.52;126432;1104;103010;-75
2021/05/22 03:01:49;;;;;;;5.57;2.60;;;;;;;12.76;51.99;98278.33;126153;1104;102997;-75
2021/05/22 03:04:18;;;;;;;5.13;2.70;;;;;;;12.76;52.21;98278.33;126230;1104;103141;-75
2021/05/22 03:06:47;;;;;;;5.57;2.60;;;;;;;12.76;52.53;98283.66;126388;1104;103095;-73
2021/05/22 03:09:16;;;;;;;6.17;2.90;;;;;;;12.75;52.34;98278.45;126361;1105;103073;-78
2021/05/22 03:11:44;;;;;;;8.30;3.30;;;;;;;12.75;52.45;98270.45;125451;1107;103072;-77
2021/05/22 03:14:13;;;;;;;6.93;2.83;;;;;;;12.75;52.59;98268.64;125574;1104;103083;-76
2021/05/22 03:16:41;;;;;;;4.67;2.80;;;;;;;12.73;52.71;98265.27;125441;1107;103029;-80
2021/05/22 03:19:10;;;;;;;7.70;2.90;;;;;;;12.75;52.76;98265.11;125421;1100;103025;-75
2021/05/22 03:21:38;;;;;;;4.70;3.10;;;;;;;12.75;52.86;98262.45;125421;1107;103225;-78
2021/05/22 03:24:09;;;;;;;6.07;2.97;;;;;;;12.77;53.11;98258.66;125413;1107;103286;-77
2021/05/22 03:26:38;;;;;;;5.47;2.83;;;;;;;12.79;53.10;98256.69;125358;1100;102998;-79
2021/05/22 03:29:06;;;;;;;6.87;3.20;;;;;;;12.84;53.24;98258.08;125552;1100;103026;-76
2021/05/22 03:31:34;;;;;;;8.87;3.30;;;;;;;12.88;53.45;98254.11;125394;1107;103032;-74
2021/05/22 03:34:03;;;;;;;8.20;3.20;;;;;;;12.90;53.89;98252.98;125612;1104;103003;-74
2021/05/22 03:36:32;;;;;;;6.00;3.10;;;;;;;12.97;53.66;98258.57;125435;1100;103115;-75
2021/05/22 03:39:00;;;;;;;5.60;2.67;;;;;;;13.03;53.92;98252.65;125362;1100;103081;-75
2021/05/22 03:41:29;;;;;;;5.10;2.63;;;;;;;13.11;53.77;98257.23;125546;1104;103001;-76
2021/05/22 03:43:58;;;;;;;5.80;2.60;;;;;;;13.19;54.09;98254.67;125392;1104;103039;-76
2021/05/22 03:46:27;;;;;;;5.40;3.00;;;;;;;13.25;54.08;98256.75;125521;1104;103097;-77
2021/05/22 03:48:57;;;;;;;5.10;2.70;;;;;;;13.30;54.24;98250.95;125501;1104;103126;-73
2021/05/22 03:51:25;;;;;;;4.30;2.50;;;;;;;13.35;53.91;98248.68;125529;1104;103247;-75
2021/05/22 03:53:53;;;;;;;4.13;2.63;;;;;;;13.41;54.43;98247.30;125456;1100;103123;-76
2021/05/22 03:56:23;;;;;;;5.63;2.43;;;;;;;13.46;54.25;98247.66;125613;1104;103119;-75
2021/05/22 03:58:53;;;;;;;10.40;2.80;;;;;;;13.53;54.40;98256.75;125459;1105;103096;-75
2021/05/22 04:01:21;;;;;;;6.30;2.80;;;;;;;13.58;54.04;98250.13;125500;1104;103158;-78
2021/05/22 04:03:50;;;;;;;4.73;2.77;;;;;;;13.62;54.29;98263.05;125493;1100;103499;-75
2021/05/22 04:06:18;;;;;;;6.87;2.87;;;;;;;13.70;54.52;98263.11;125539;1104;103096;-79
2021/05/22 04:08:46;;;;;;;8.00;3.00;;;;;;;13.76;54.42;98258.16;125475;1104;103075;-75
2021/05/22 04:11:14;;;;;;;4.03;2.70;;;;;;;13.80;54.41;98265.73;125541;1100;103482;-75
2021/05/22 04:13:43;;;;;;;4.77;2.40;;;;;;;13.88;54.68;98270.31;125490;1104;102762;-74
2021/05/22 04:16:11;;;;;;;5.60;2.50;;;;;;;13.95;54.84;98267.86;125441;1100;103093;-75
2021/05/22 04:18:39;;;;;;;7.67;2.80;;;;;;;14.02;54.64;98250.21;125384;1105;103072;-75
2021/05/22 04:21:08;;;;;;;4.40;2.70;;;;;;;14.09;54.62;98255.77;125362;1100;103083;-74
2021/05/22 04:23:37;;;;;;;4.27;2.40;;;;;;;14.17;54.89;98255.84;125503;1104;103129;-75
2021/05/22 04:26:05;;;;;;;5.43;2.77;;;;;;;14.24;54.69;98248.89;125451;1104;103188;-74
2021/05/22 04:28:33;;;;;;;3.97;2.33;;;;;;;14.32;54.64;98252.63;125470;1104;103087;-76
2021/05/22 04:31:02;;;;;;;6.40;2.75;;;;;;;14.40;54.56;98255.37;125557;1100;103098;-74
2021/05/22 04:33:30;;;;;;;3.23;2.37;;;;;;;14.45;54.74;98266.45;125531;1104;103572;-75
2021/05/22 04:35:59;;;;;;;7.50;3.40;;;;;;;14.50;54.71;98255.27;125573;1100;103000;-74
2021/05/22 04:38:28;;;;;;;4.67;2.60;;;;;;;14.55;54.47;98253.78;125394;1099;103426;-75
2021/05/22 04:40:56;;;;;;;5.77;3.00;;;;;;;14.60;54.66;98253.33;125358;1100;103152;-74
2021/05/22 04:43:24;;;;;;;5.57;2.77;;;;;;;14.63;54.72;98261.05;125439;1104;103114;-74
2021/05/22 04:45:53;;;;;;;9.37;3.17;;;;;;;14.66;54.47;98244.67;125531;1104;103021;-75
2021/05/22 04:48:21;;;;;;;3.00;2.30;;;;;;;14.69;54.42;98257.73;125452;1107;103071;-73
2021/05/22 04:50:49;;;;;;;8.83;2.93;;;;;;;14.72;54.65;98269.98;125479;1107;103055;-75
2021/05/22 04:53:18;;;;;;;5.13;2.80;;;;;;;14.76;54.60;98266.00;125560;1104;103032;-74
2021/05/22 04:55:46;;;;;;;5.97;2.33;;;;;;;14.80;54.45;98272.72;125457;1105;103004;-75
2021/05/22 04:58:14;;;;;;;6.00;2.83;;;;;;;14.85;54.63;98275.77;125467;1104;102997;-74
2021/05/22 05:00:42;;;;;;;8.07;2.73;;;;;;;14.92;54.60;98275.10;125532;1100;102990;-74
2021/05/22 05:03:11;;;;;;;4.73;2.70;;;;;;;14.96;54.50;98273.79;125569;1104;103107;-75
2021/05/22 05:05:39;;;;;;;7.50;2.73;;;;;;;15.02;54.47;98278.52;125507;1104;103075;-74
2021/05/22 05:08:08;;;;;;;8.60;3.00;;;;;;;15.08;54.50;98266.34;125378;1107;103072;-75
2021/05/22 05:10:38;;;;;;;6.40;2.90;;;;;;;15.14;54.50;98262.99;125421;1104;103068;-73
2021/05/22 05:13:06;;;;;;;7.60;3.20;;;;;;;15.20;54.44;98257.00;125429;1107;102997;-75
2021/05/22 05:15:35;;;;;;;5.93;2.57;;;;;;;15.27;54.39;98263.39;125553;1104;102651;-74
2021/05/22 05:18:04;;;;;;;6.87;2.97;;;;;;;15.35;54.08;98273.29;125450;1104;102995;-79
2021/05/22 05:20:33;;;;;;;10.47;2.90;;;;;;;15.42;54.40;98268.14;125469;1107;103375;-75
2021/05/22 05:23:01;;;;;;;7.57;3.47;;;;;;;15.56;54.35;98288.11;125521;1100;103505;-74
2021/05/22 05:25:29;;;;;;;5.60;2.30;;;;;;;15.71;54.30;98266.88;125320;1108;103146;-76
2021/05/22 05:27:58;;;;;;;3.77;2.47;;;;;;;15.80;54.23;98265.89;125264;1107;103134;-75
2021/05/22 05:30:26;;;;;;;4.33;2.60;;;;;;;15.87;54.25;98263.41;125397;1107;103102;-76
2021/05/22 05:32:54;;;;;;;8.30;2.90;;;;;;;15.93;53.92;98263.58;125399;1100;103136;-77
2021/05/22 05:35:23;;;;;;;6.30;3.00;;;;;;;16.00;54.02;98269.13;125395;1107;103101;-69
2021/05/22 05:37:51;;;;;;;6.40;2.50;;;;;;;16.04;54.03;98277.67;125410;1100;103007;-73
2021/05/22 05:40:20;;;;;;;5.77;2.50;;;;;;;16.04;53.86;98273.16;125373;1100;102733;-74
2021/05/22 05:42:50;;;;;;;7.20;2.30;;;;;;;16.05;53.78;98269.48;125336;1100;103129;-73
2021/05/22 05:45:18;;;;;;;7.00;2.70;;;;;;;16.06;53.70;98272.98;125544;1104;102997;-74
2021/05/22 05:47:47;;;;;;;8.35;2.60;;;;;;;16.09;53.79;98261.09;125467;1104;103000;-75
2021/05/22 05:50:15;;;;;;;7.37;2.47;;;;;;;16.10;53.67;98265.45;125495;1104;103027;-77
2021/05/22 05:52:44;;;;;;;6.53;2.60;;;;;;;16.12;53.64;98261.59;125539;1104;104552;-75
2021/05/22 05:55:12;;;;;;;7.53;2.37;;;;;;;16.13;53.51;98262.41;125481;1104;103007;-75
2021/05/22 05:57:40;;;;;;;4.67;2.43;;;;;;;16.12;53.51;98272.31;125425;1107;103027;-75
2021/05/22 06:00:10;;;;;;;5.80;2.17;;;;;;;16.11;53.46;98262.59;125325;1107;103004;-73
2021/05/22 06:02:38;;;;;;;5.57;2.37;;;;;;;16.14;53.47;98264.09;125413;1107;103088;-75
2021/05/22 06:05:08;;;;;;;6.30;2.53;;;;;;;16.16;53.45;98268.30;125367;1107;103133;-74
2021/05/22 06:07:36;;;;;;;8.80;3.00;;;;;;;16.17;53.33;98259.25;125424;1107;103238;-75
2021/05/22 06:10:06;;;;;;;6.57;2.60;;;;;;;16.20;53.20;98261.59;125445;1107;103022;-74
2021/05/22 06:12:35;;;;;;;6.83;2.30;;;;;;;16.24;53.10;98256.72;125369;1100;103212;-76
2021/05/22 06:15:30;;;;;;;7.33;2.30;;;;;;;16.24;53.05;98256.72;125450;1107;103032;-78
2021/05/22 06:17:56;;;;;;;6.50;2.53;;;;;;;16.20;53.01;98241.96;125432;1107;102998;-75
2021/05/22 06:20:26;;;;;;;6.70;2.47;;;;;;;16.30;53.22;98261.42;125390;1107;103132;-75
2021/05/22 06:22:55;;;;;;;5.00;2.13;;;;;;;16.41;52.76;98265.59;125381;1107;102996;-76
2021/05/22 06:25:24;;;;;;;3.70;2.40;;;;;;;16.34;52.80;98260.08;125386;1107;103000;-74
2021/05/22 06:27:52;;;;;;;7.10;2.70;;;;;;;16.29;52.96;98269.66;125433;1107;103025;-74
2021/05/22 06:30:21;;;;;;;7.20;2.20;;;;;;;16.26;52.89;98262.76;125392;1107;103116;-73
2021/05/22 06:32:49;;;;;;;5.93;2.47;;;;;;;16.28;52.82;98260.75;125390;1105;102989;-74
2021/05/22 06:35:18;;;;;;;7.33;2.53;;;;;;;16.30;52.79;98256.05;125504;1104;102953;-74
2021/05/22 06:37:46;;;;;;;2.83;2.27;;;;;;;16.31;52.70;98255.05;125357;1104;103549;-74
2021/05/22 06:40:15;;;;;;;3.77;2.30;;;;;;;16.29;52.67;98253.55;125537;1100;103118;-72
2021/05/22 06:42:43;;;;;;;5.17;2.80;;;;;;;16.27;52.57;98252.88;125466;1100;102734;-82
2021/05/22 06:45:15;;;;;;;4.50;2.30;;;;;;;16.26;52.53;98241.30;125367;1099;103260;-75
2021/05/22 06:47:49;;;;;;;8.73;2.63;;;;;;;16.31;52.70;98236.27;125523;1104;103028;-75
2021/05/22 06:50:17;;;;;;;5.80;2.73;;;;;;;16.41;52.42;98238.76;125330;1104;103025;-77
2021/05/22 06:52:46;;;;;;;4.77;2.17;;;;;;;16.52;52.56;98245.62;125392;1104;103237;-78
2021/05/22 06:55:15;;;;;;;4.93;2.50;;;;;;;16.66;52.80;98252.16;125343;1105;103081;-76
2021/05/22 06:57:43;;;;;;;6.60;2.33;;;;;;;17.85;51.18;98251.33;125452;1104;103486;-79
2021/05/22 07:00:12;;;;;;;7.27;2.43;;;;;;;20.03;50.20;98245.11;125366;1100;103135;-77
2021/05/22 07:02:43;;;;;;;4.47;2.37;;;;;;;21.90;50.33;98251.86;125286;1107;103537;-75
2021/05/22 07:05:12;;;;;;;5.47;2.07;;;;;;;22.75;50.56;98260.26;125417;1104;103021;-80
2021/05/22 07:07:42;;;;;;;5.67;2.60;;;;;;;22.37;51.40;98260.02;125412;1104;103148;-78
2021/05/22 07:10:12;;;;;;;7.17;2.30;;;;;;;21.52;51.66;98264.84;125326;1104;103052;-79
2021/05/22 07:12:40;;;;;;;5.07;2.63;;;;;;;20.81;51.40;98257.80;125343;1106;103036;-78
2021/05/22 07:15:10;;;;;;;7.57;2.93;;;;;;;20.31;51.55;98247.86;125462;1104;103125;-82
2021/05/22 07:17:39;;;;;;;3.50;1.80;;;;;;;19.86;50.74;98242.63;125876;1107;103000;-79
2021/05/22 07:20:08;;;;;;;3.80;2.15;;;;;;;19.52;50.97;98254.09;125406;1107;103465;-78
2021/05/22 07:22:36;;;;;;;5.23;2.17;;;;;;;19.27;51.03;98247.16;125383;1107;103448;-79
2021/05/22 07:25:06;;;;;;;4.40;2.23;;;;;;;19.11;50.90;98252.73;125360;1100;103053;-78
2021/05/22 07:27:35;;;;;;;7.80;2.50;;;;;;;19.44;50.23;98247.78;125293;1107;103174;-79
2021/05/22 07:30:08;;;;;;;5.93;2.40;;;;;;;19.92;49.76;98247.28;125402;1104;103807;-79
2021/05/22 07:32:39;;;;;;;4.98;2.23;;;;;;;19.91;50.25;98239.39;125546;1104;103124;-81
2021/05/22 07:35:11;;;;;;;5.75;2.50;;;;;;;19.91;49.77;98231.30;125333;1100;103171;-78
2021/05/22 07:37:41;;;;;;;5.40;2.13;;;;;;;20.07;49.70;98220.23;125407;1107;103020;-78
2021/05/22 07:40:12;;;;;;;6.20;2.20;;;;;;;20.05;49.61;98210.66;125520;1104;103069;-78
2021/05/22 07:42:48;;;;;;;3.53;2.30;;;;;;;20.77;49.17;98213.31;125364;1105;103059;-79
2021/05/22 07:45:18;;;;;;;6.80;2.30;;;;;;;20.96;48.62;98196.36;125407;1104;103065;-74
2021/05/22 07:47:47;;;;;;;5.15;1.90;;;;;;;21.70;48.49;98193.09;125480;1104;103219;-75
2021/05/22 07:50:16;;;;;;;17.90;4.03;;;;;;;21.70;48.63;98190.39;125382;1107;103024;-75
2021/05/22 07:52:44;;;;;;;4.63;2.30;;;;;;;22.19;48.88;98190.23;125363;1099;103559;-78
2021/05/22 07:55:13;;;;;;;6.93;2.80;;;;;;;22.86;48.24;98182.86;125322;1100;103083;-80
2021/05/22 07:57:41;;;;;;;6.37;2.00;;;;;;;23.09;48.06;98191.55;125581;1104;103074;-75
2021/05/22 08:00:12;;;;;;;2.35;1.85;;;;;;;22.94;48.08;98181.78;125635;1104;102997;-77
2021/05/22 08:02:42;;;;;;;5.33;1.97;;;;;;;22.68;48.06;98180.83;125372;1107;103027;-76
2021/05/22 08:05:13;;;;;;;9.10;2.33;;;;;;;22.34;47.24;98193.56;125424;1104;103167;-73
2021/05/22 08:07:42;;;;;;;3.33;1.87;;;;;;;22.19;47.12;98173.98;125402;1100;103124;-72
2021/05/22 08:10:13;;;;;;;6.70;2.50;;;;;;;22.15;46.87;98179.81;125362;1107;103158;-72
2021/05/22 08:12:43;;;;;;;8.77;1.83;;;;;;;22.62;46.63;98186.27;125375;1100;103034;-70
2021/05/22 08:15:12;;;;;;;11.07;2.37;;;;;;;23.62;46.69;98183.19;125480;1104;103117;-72
2021/05/22 08:17:40;;;;;;;4.00;2.13;;;;;;;24.55;46.08;98181.84;125535;1100;103191;-72
2021/05/22 08:20:11;;;;;;;9.30;2.70;;;;;;;25.51;45.93;98195.02;125389;1100;103025;-77
2021/05/22 08:22:40;;;;;;;9.90;2.43;;;;;;;26.39;45.95;98200.81;125379;1100;103029;-77
2021/05/22 08:25:09;;;;;;;7.77;2.03;;;;;;;26.71;45.64;98194.17;125322;1104;103139;-71
2021/05/22 08:27:39;;;;;;;4.07;2.20;;;;;;;26.27;45.43;98189.91;125513;1100;103476;-75
2021/05/22 08:30:10;;;;;;;10.37;2.13;;;;;;;25.55;44.86;98190.78;125350;1100;103096;-74
2021/05/22 08:32:39;;;;;;;9.63;2.57;;;;;;;24.78;45.34;98184.78;125529;1104;103022;-77
2021/05/22 08:35:09;;;;;;;8.57;2.33;;;;;;;24.11;44.84;98185.36;125351;1107;103072;-74
2021/05/22 08:37:37;;;;;;;6.80;2.07;;;;;;;23.53;44.24;98202.64;125447;1104;103087;-75
2021/05/22 08:40:08;;;;;;;11.47;2.40;;;;;;;23.03;44.40;98202.20;125418;1104;103027;-75
2021/05/22 08:42:37;;;;;;;3.47;1.77;;;;;;;22.71;43.92;98203.95;125522;1104;103030;-76
2021/05/22 08:45:08;;;;;;;5.37;1.90;;;;;;;22.34;43.41;98195.42;125356;1107;102982;-78
2021/05/22 08:47:38;;;;;;;7.50;2.27;;;;;;;21.96;44.09;98203.13;125470;1104;103091;-79
2021/05/22 08:50:09;;;;;;;7.23;2.13;;;;;;;21.68;43.35;98198.73;125443;1100;103304;-77
2021/05/22 08:52:39;;;;;;;9.37;2.73;;;;;;;21.40;43.58;98196.12;125404;1104;103014;-78
2021/05/22 08:55:10;;;;;;;7.17;1.80;;;;;;;21.30;43.38;98196.51;125400;1104;103116;-78
2021/05/22 08:57:39;;;;;;;15.67;3.53;;;;;;;21.21;43.43;98179.60;125516;1100;102998;-72
2021/05/22 09:00:12;;;;;;;3.60;1.80;;;;;;;21.32;42.77;98169.25;125359;1108;103119;-81
2021/05/22 09:02:42;;;;;;;11.67;2.50;;;;;;;21.47;42.55;98188.86;125612;1105;103162;-77
2021/05/22 09:05:28;;;;;;;7.60;2.00;;;;;;;21.34;42.69;98180.70;125325;1107;103080;-73
2021/05/22 09:08:06;;;;;;;8.03;1.87;;;;;;;21.13;42.74;98177.09;125328;1107;103206;-83
2021/05/22 09:10:37;;;;;;;11.17;2.10;;;;;;;20.90;42.66;98178.23;125487;1104;103158;-72
2021/05/22 09:13:08;;;;;;;6.27;2.47;;;;;;;20.65;42.55;98184.11;125485;1104;103027;-73
2021/05/22 09:15:43;;;;;;;12.65;2.85;;;;;;;20.53;42.47;98185.69;125482;1104;103091;-73
2021/05/22 09:18:17;;;;;;;6.80;2.40;;;;;;;20.41;41.97;98193.50;125360;1107;103801;-73
2021/05/22 09:20:52;;;;;;;14.63;2.47;;;;;;;20.16;41.45;98201.20;125390;1107;103113;-74
2021/05/22 09:23:26;;;;;;;15.00;2.63;;;;;;;19.83;41.39;98196.31;125510;1104;103104;-80
2021/05/22 09:25:56;;;;;;;8.33;2.50;;;;;;;19.57;41.50;98190.45;125522;1107;103221;-79
2021/05/22 09:28:33;;;;;;;16.93;2.30;;;;;;;19.43;41.77;98194.88;125454;1099;103136;-79
2021/05/22 09:31:04;;;;;;;13.27;2.60;;;;;;;19.35;41.45;98184.20;125483;1104;103094;-81
2021/05/22 09:33:35;;;;;;;7.83;2.57;;;;;;;19.17;41.92;98190.00;125339;1100;103016;-79
2021/05/22 09:36:11;;;;;;;11.90;2.90;;;;;;;19.08;41.73;98183.89;125368;1107;103001;-78
2021/05/22 09:38:52;;;;;;;5.60;2.10;;;;;;;18.97;41.66;98185.19;125520;1099;103076;-77
2021/05/22 09:41:27;;;;;;;4.63;2.10;;;;;;;18.85;41.87;98182.10;125365;1105;103568;-76
2021/05/22 09:44:07;;;;;;;6.73;2.30;;;;;;;18.73;41.79;98170.97;125395;1100;103006;-78
2021/05/22 09:46:45;;;;;;;9.73;3.23;;;;;;;18.71;41.71;98172.19;125533;1107;103486;-75
2021/05/22 09:49:23;;;;;;;16.70;3.00;;;;;;;18.61;41.96;98167.06;125462;1100;103027;-81
2021/05/22 09:51:58;;;;;;;12.27;2.30;;;;;;;18.50;42.00;98162.98;125458;1104;103075;-75
2021/05/22 09:54:39;;;;;;;14.20;3.20;;;;;;;18.38;41.95;98178.77;125495;1104;103126;-82
2021/05/22 09:57:09;;;;;;;6.17;2.60;;;;;;;18.33;41.62;98177.65;125348;1107;103094;-80
2021/05/22 09:59:38;;;;;;;5.90;2.30;;;;;;;18.28;41.80;98164.72;125486;1107;103006;-78
2021/05/22 10:02:06;;;;;;;7.60;2.40;;;;;;;18.21;41.96;98177.23;125352;1100;103503;-77
2021/05/22 10:04:34;;;;;;;10.13;2.73;;;;;;;18.19;42.24;98171.20;125337;1100;103100;-76
2021/05/22 10:07:03;;;;;;;5.97;2.57;;;;;;;18.19;41.93;98163.97;125339;1100;103262;-77
2021/05/22 10:09:31;;;;;;;9.20;2.87;;;;;;;18.21;42.23;98170.02;125338;1107;103083;-78
2021/05/22 10:12:15;;;;;;;8.63;2.37;;;;;;;18.23;42.01;98161.73;125324;1107;103000;-76
2021/05/22 10:14:45;;;;;;;7.13;2.50;;;;;;;18.28;42.56;98162.88;125304;1105;103216;-83
2021/05/22 10:17:16;;;;;;;9.70;2.47;;;;;;;18.27;42.48;98165.73;125589;1107;103095;-79
2021/05/22 10:19:47;;;;;;;9.83;3.17;;;;;;;18.23;42.58;98170.66;125574;1107;103167;-86
2021/05/22 10:22:18;;;;;;;10.50;2.27;;;;;;;18.16;42.63;98169.72;126002;1104;102174;-83
2021/05/22 10:24:47;;;;;;;10.75;3.20;;;;;;;18.03;42.33;98174.88;125145;1105;102997;-72
2021/05/22 10:27:15;;;;;;;10.60;2.80;;;;;;;17.82;42.76;98169.13;125164;1105;103180;-74
2021/05/22 10:29:45;;;;;;;10.07;2.77;;;;;;;17.64;42.86;98180.19;125124;1107;103176;-76
2021/05/22 10:32:26;;;;;;;9.73;2.60;;;;;;;17.45;42.91;98189.56;125263;1104;103023;-75
2021/05/22 10:34:56;;;;;;;7.23;2.47;;;;;;;17.35;42.76;98197.86;125067;1107;103054;-73
2021/05/22 10:37:47;;;;;;;9.90;3.10;;;;;;;17.17;43.00;98189.20;125241;1104;102996;-73
2021/05/22 10:40:45;;;;;;;11.50;2.70;;;;;;;16.95;43.24;98203.20;125348;1104;103091;-72
2021/05/22 10:43:16;;;;;;;6.23;2.40;;;;;;;16.76;43.92;98212.51;125129;1107;103133;-75
2021/05/22 10:45:45;;;;;;;4.97;2.80;;;;;;;16.57;44.11;98220.97;125070;1107;103460;-76
2021/05/22 10:48:17;;;;;;;5.47;2.87;;;;;;;16.41;44.04;98222.66;125214;1100;101100;-74
2021/05/22 10:50:47;;;;;;;10.90;2.90;;;;;;;16.22;46.82;98240.80;125517;1104;103029;-73
2021/05/22 10:53:37;;;;;;;7.43;2.70;;;;;;;15.89;45.80;98234.58;125364;1107;103000;-73
2021/05/22 10:56:18;;;;;;;5.50;2.57;;;;;;;15.66;46.44;98237.89;125547;1100;103177;-75
2021/05/22 10:58:58;;;;;;;8.23;2.90;;;;;;;15.42;46.28;98238.66;125295;1105;103672;-75
2021/05/22 11:01:29;;;;;;;6.40;3.15;;;;;;;15.18;46.98;98241.10;125496;1104;103138;-73
2021/05/22 11:07:14;;;;;;;10.63;3.27;;;;;;;14.80;47.66;98250.45;125422;1100;103118;-73
2021/05/22 11:09:44;;;;;;;7.70;2.80;;;;;;;14.63;48.97;98252.16;124871;1104;103655;-75
2021/05/22 11:12:17;;;;;;;10.67;3.43;;;;;;;14.45;48.68;98258.42;125119;1105;103550;-75
2021/05/22 11:14:53;;;;;;;;;;;;;;;14.35;49.18;98261.17;125296;1104;102996;-73
2021/05/22 11:17:21;;;;;;;11.67;3.10;;;;;;;14.28;48.96;98263.63;125191;1100;103052;-74
2021/05/22 11:20:00;;;;;;;4.87;3.10;;;;;;;14.32;51.01;98263.33;125081;1107;103027;-73
2021/05/22 11:22:32;;;;;;;9.70;3.90;;;;;;;14.25;49.94;98255.09;125051;1107;103035;-73
2021/05/22 11:25:03;;;;;;;9.45;3.40;;;;;;;14.19;49.88;98245.02;125065;1100;103676;-73
2021/05/22 11:28:45;;;;;;;7.70;3.47;;;;;;;14.16;49.93;98245.31;125230;1104;103046;-72
2021/05/22 11:30:47;;;;;;;7.60;3.70;;;;;;;14.18;50.08;98248.68;125274;1104;103126;-70
2021/05/22 11:33:21;;;;;;;8.73;3.70;;;;;;;14.26;50.47;98246.08;125288;1104;103104;-71
2021/05/22 11:35:52;;;;;;;5.83;3.57;;;;;;;14.32;50.91;98245.42;125338;1099;103090;-71